Pagina principală
METAR-TAF:

Aeroporturi :

București-Băneasa, România

Aeroportul Internațional București Băneasa - Aurel Vlaicu

Latitudine: 44-30N, longitudine: 026-08E, elevație: 90 m

Observații meteo curente

Raportul a fost făcut în urmă cu 15 de minute, la 06:00 UTC
Vânt 7 kt de la Nord-est, variabil între Nord și Est/Nord-est
Temperatură 26°C
Umiditate 58%
Presiune 1016 hPa
Vizibilitate de 10 km sau mai mult
nu există nori sub 1.500 m și nici cumulonimbus

METAR: LRBS 260600Z 04007KT 350V070 CAVOK 26/17 Q1016 NOSIG

Ora: 09:15 (06:15 UTC)

Prognoză

Raportul a fost făcut în urmă cu 1 oră și 15 de minute, la 05:00 UTC
Prognoză valabilă de la 26 ora 06 UTC la 27 ora 06 UTC
Vânt 8 kt de la Nord-est
Vizibilitate de 10 km sau mai mult
nu există nori sub 1.500 m și nici cumulonimbus

TAF: LRBS 260500Z 2606/2706 04008KT CAVOK

METAR-TAF

Observații și prognoze meteo pentru peste 4.000 de aeroporturi (rapoarte METAR și TAF).

Stațiile disponibile sunt reprezentate pe hartă prin puncte galbene și roșii.

Țineți indicatorul mouse-ului pe punctul dorit pentru a vedea denumirea stației.

Apoi, faceți clic pentru a vedea observațiile și prognozele meteorologice.

Pentru a schimba harta: Pentru mărire, faceți clic pe butoanele verzi cu cruce neagră; pentru micșorare, pe butonul verde cu o liniuță; pentru hărți învecinate, pe săgețile verzi.


METAR-TAF: